METAR és
SPECI
METAR LHBP 301530Z 21004KT 180V240 CAVOK 22/11 Q1024 NOSIG=
METAR LHBP 301500Z 17004KT 140V200 CAVOK 22/11 Q1024 NOSIG=
METAR LHBP 301430Z 22005KT 180V250 CAVOK 22/11 Q1024 NOSIG=
METAR LHBP 301400Z 19004KT 110V240 CAVOK 22/11 Q1025 NOSIG=
METAR LHBP 301330Z VRB03KT CAVOK 22/11 Q1025 NOSIG=
METAR LHBP 301300Z VRB03KT CAVOK 22/11 Q1025 NOSIG=
TAF
TAF LHBP 301100Z 3012/0112 VRB03KT CAVOK TEMPO 0102/0107 7000 MIFG NSC=
GAMET
FAHU41 LHBM 301100
LHCC GAMET VALID 301200/301800 LHBP-
BUDAPEST FIR BLW FL100
SECN I
SFC VIS: 12/13 3500-5000 M BR W OF E01700
17/18 3000-5000 M BR W OF E01800
SIG CLD: 12/13 BKN 0900-1000/3000 FT AGL BR W OF E01700
SIGMETS APPLICABLE: NIL=
OMSZ: 2014. szeptember 30. 13:08 (11:08  UTC)
[FAHU41]
AIRMET
Nincs érvényes távirat! 
WAHU41 LHBM 301000
LHCC AIRMET 01 VALID 301000/301200 LHBP-
LHCC BUDAPEST FIR SFC VIS 0600-5000M FG BR W OF E01730 WKN=
SIGMET
Nincs érvényes távirat! 
WSHU31 LHBM 261430
LHCC SIGMET 04 VALID 261430/261730 LHBP-
LHCC BUDAPEST FIR CNL SIGMET 03 261330/261730=
SIGMET
Vulkáni hamufelhő
Not valid product! 
WVHU31 LHBM 271515 CCA
LHCC SIGMET 03 VALID 271515/271800 LHBP-
LHCC BUDAPEST FIR EXERCISE VOLCEX12/01
CNL VA SIGMET 02 271200/271800
EXERCISE EXERCISE EXERCISE VOLCEX12/01=